| time (UTC) | temp F | wind direction | speed MPH | gust MPH | rain 1hr in | rain 24hr in | rain mn in | humidity % | barometer mb |
| 20260905195107 | 74 | 277 | 0.0 | 2.0 | 0.13 | 0.15 | 0.15 | 92 | 1039.8 |
| 20260905194605 | 75 | 49 | 0.0 | 0.0 | 0.11 | 0.13 | 0.14 | 91 | 1039.8 |
| 20260905194103 | 76 | 51 | 0.0 | 0.0 | 0.04 | 0.06 | 0.06 | 90 | 1039.8 |
| 20260905193603 | 77 | 51 | 0.0 | 0.0 | 0.03 | 0.05 | 0.05 | 88 | 1039.9 |
| 20260905193103 | 78 | 259 | 0.0 | 2.0 | 0.00 | 0.02 | 0.02 | 87 | 1039.9 |
| 20260905192603 | 79 | 259 | 0.0 | 2.0 | 0.00 | 0.03 | 0.02 | 84 | 1039.9 |
| 20260905192058 | 80 | 128 | 0.0 | 3.0 | 0.00 | 0.03 | 0.02 | 83 | 1039.8 |
| 20260905191817 | 80 | 19 | 0.0 | 3.0 | 0.00 | 0.03 | 0.02 | 82 | 1039.8 |
| 20260905191054 | 80 | 307 | 0.0 | 2.0 | 0.00 | 0.06 | 0.02 | 83 | 1039.8 |
| 20260905190553 | 80 | 17 | 0.0 | 2.0 | 0.00 | 0.19 | 0.02 | 82 | 1040.1 |
| 20260905190051 | 80 | 306 | 0.0 | 1.0 | 0.00 | 0.27 | 0.02 | 82 | 1040.1 |
| 20260905185549 | 80 | 323 | 0.0 | 2.0 | 0.00 | 0.27 | 0.02 | 84 | 1040.1 |
| 20260905185530 | 80 | 335 | 0.0 | 3.0 | 0.00 | 0.27 | 0.02 | 84 | 1040.2 |
| 20260905184545 | 80 | 101 | 0.0 | 3.0 | 0.00 | 0.27 | 0.02 | 84 | 1040.2 |
| 20260905184043 | 79 | 264 | 0.0 | 0.0 | 0.00 | 0.27 | 0.02 | 84 | 1040.2 |
| 20260905183536 | 79 | 262 | 0.0 | 0.0 | 0.00 | 0.27 | 0.02 | 85 | 1040.3 |
| 20260905183031 | 80 | 262 | 0.0 | 0.0 | 0.00 | 0.27 | 0.02 | 86 | 1040.3 |
| 20260905182747 | 79 | 256 | 1.0 | 3.0 | 0.00 | 0.27 | 0.02 | 85 | 1040.3 |
| 20260905182018 | 80 | 241 | 2.0 | 4.0 | 0.00 | 0.27 | 0.02 | 83 | 1040.3 |
| 20260905181733 | 80 | 255 | 2.0 | 6.0 | 0.00 | 0.27 | 0.02 | 83 | 1040.3 |
| 20260905181003 | 80 | 234 | 1.0 | 6.0 | 0.00 | 0.27 | 0.02 | 82 | 1040.3 |
| 20260905180501 | 80 | 284 | 1.0 | 7.0 | 0.00 | 0.27 | 0.02 | 83 | 1040.3 |
| 20260905175955 | 80 | 274 | 2.0 | 7.0 | 0.00 | 0.27 | 0.02 | 84 | 1040.3 |
| 20260905175449 | 80 | 118 | 1.0 | 5.0 | 0.00 | 0.27 | 0.02 | 83 | 1040.3 |
| 20260905174943 | 80 | 138 | 0.0 | 0.0 | 0.00 | 0.27 | 0.02 | 83 | 1040.5 |
| 20260905174443 | 79 | 109 | 0.0 | 0.0 | 0.00 | 0.27 | 0.02 | 85 | 1040.5 |
| 20260905173940 | 79 | 105 | 0.0 | 0.0 | 0.00 | 0.27 | 0.02 | 85 | 1040.5 |
| 20260905173441 | 78 | 156 | 0.0 | 0.0 | 0.00 | 0.27 | 0.02 | 85 | 1040.7 |
| 20260905172940 | 78 | 96 | 0.0 | 0.0 | 0.00 | 0.27 | 0.02 | 88 | 1040.7 |
| 20260905172439 | 78 | 102 | 0.0 | 0.0 | 0.00 | 0.27 | 0.02 | 86 | 1040.7 |
| 20260905171937 | 78 | 103 | 0.0 | 0.0 | 0.00 | 0.27 | 0.02 | 86 | 1040.8 |
| 20260905171437 | 78 | 95 | 0.0 | 0.0 | 0.00 | 0.27 | 0.02 | 88 | 1040.8 |
| 20260905170935 | 77 | 95 | 0.0 | 0.0 | 0.00 | 0.27 | 0.02 | 88 | 1040.8 |
| 20260905170434 | 77 | 95 | 0.0 | 0.0 | 0.00 | 0.27 | 0.02 | 89 | 1041.1 |
| 20260905165932 | 76 | 95 | 0.0 | 0.0 | 0.00 | 0.27 | 0.02 | 91 | 1041.1 |
| 20260905165431 | 76 | 95 | 0.0 | 0.0 | 0.02 | 0.27 | 0.02 | 90 | 1041.1 |
| 20260905165417 | 76 | 95 | 0.0 | 0.0 | 0.02 | 0.27 | 0.02 | 92 | 1041.3 |
| 20260905164433 | 76 | 123 | 0.0 | 0.0 | 0.02 | 0.27 | 0.02 | 91 | 1041.3 |
| 20260905163927 | 75 | 123 | 0.0 | 0.0 | 0.02 | 0.27 | 0.02 | 91 | 1041.3 |
| 20260905163415 | 75 | 123 | 0.0 | 0.0 | 0.02 | 0.27 | 0.02 | 92 | 1041.3 |
| 20260905163138 | 74 | 123 | 0.0 | 0.0 | 0.02 | 0.27 | 0.02 | 91 | 1041.3 |
| 20260905162415 | 74 | 123 | 0.0 | 0.0 | 0.02 | 0.27 | 0.02 | 92 | 1041.3 |
| 20260905162359 | 74 | 123 | 0.0 | 0.0 | 0.02 | 0.27 | 0.02 | 93 | 1041.4 |
| 20260905161415 | 74 | 123 | 0.0 | 0.0 | 0.02 | 0.27 | 0.02 | 93 | 1041.4 |
| 20260905160914 | 74 | 123 | 0.0 | 0.0 | 0.02 | 0.27 | 0.02 | 93 | 1041.4 |
| 20260905160637 | 74 | 123 | 0.0 | 0.0 | 0.02 | 0.27 | 0.02 | 93 | 1041.8 |
| 20260905155917 | 74 | 123 | 0.0 | 0.0 | 0.02 | 0.27 | 0.02 | 92 | 1041.8 |
| 20260905155417 | 74 | 230 | 0.0 | 0.0 | 0.00 | 0.25 | 0.00 | 92 | 1041.8 |
| 20260905154912 | 74 | 230 | 0.0 | 0.0 | 0.00 | 0.25 | 0.00 | 92 | 1041.8 |
| 20260905154359 | 74 | 230 | 0.0 | 0.0 | 0.00 | 0.25 | 0.00 | 92 | 1041.8 |
| 20260905153847 | 75 | 230 | 0.0 | 0.0 | 0.00 | 0.25 | 0.00 | 92 | 1041.8 |
| 20260905153335 | 75 | 234 | 0.0 | 0.0 | 0.00 | 0.25 | 0.00 | 91 | 1041.8 |
| 20260905152823 | 75 | 232 | 0.0 | 0.0 | 0.00 | 0.25 | 0.00 | 90 | 1041.8 |
| 20260905152532 | 75 | 233 | 0.0 | 0.0 | 0.00 | 0.25 | 0.00 | 90 | 1042.1 |
| 20260905152031 | 75 | 238 | 0.0 | 0.0 | 0.00 | 0.25 | 0.00 | 91 | 1042.1 |
| 20260905151256 | 75 | 239 | 0.0 | 0.0 | 0.00 | 0.25 | 0.00 | 90 | 1042.1 |
| 20260905151006 | 75 | 238 | 0.0 | 0.0 | 0.00 | 0.25 | 0.00 | 90 | 1042.2 |
| 20260905150510 | 75 | 238 | 0.0 | 0.0 | 0.00 | 0.25 | 0.00 | 90 | 1042.2 |
| 20260905145738 | 75 | 265 | 0.0 | 1.0 | 0.00 | 0.25 | 0.00 | 91 | 1042.2 |
| 20260905145231 | 75 | 268 | 0.0 | 1.0 | 0.00 | 0.25 | 0.00 | 91 | 1041.8 |
| 20260905144726 | 74 | 268 | 0.0 | 1.0 | 0.00 | 0.25 | 0.00 | 91 | 1041.8 |
| 20260905144219 | 74 | 255 | 0.0 | 3.0 | 0.00 | 0.25 | 0.00 | 92 | 1041.8 |
| 20260905143713 | 74 | 245 | 0.0 | 3.0 | 0.00 | 0.25 | 0.00 | 91 | 1041.8 |
| 20260905143200 | 74 | 240 | 0.0 | 1.0 | 0.00 | 0.25 | 0.00 | 92 | 1041.8 |
| 20260905142701 | 74 | 240 | 0.0 | 2.0 | 0.00 | 0.25 | 0.00 | 92 | 1041.8 |
| 20260905142154 | 74 | 232 | 0.0 | 2.0 | 0.00 | 0.25 | 0.00 | 92 | 1041.8 |
| 20260905141649 | 74 | 232 | 0.0 | 2.0 | 0.00 | 0.25 | 0.00 | 91 | 1041.8 |
| 20260905141143 | 74 | 232 | 0.0 | 2.0 | 0.00 | 0.25 | 0.00 | 91 | 1041.8 |
| 20260905140637 | 74 | 257 | 0.0 | 2.0 | 0.00 | 0.25 | 0.00 | 91 | 1041.6 |
| 20260905140130 | 74 | 251 | 0.0 | 2.0 | 0.00 | 0.25 | 0.00 | 92 | 1041.6 |
| 20260905135618 | 74 | 254 | 0.0 | 1.0 | 0.00 | 0.25 | 0.00 | 93 | 1041.6 |
| 20260905135118 | 74 | 254 | 0.0 | 2.0 | 0.00 | 0.25 | 0.00 | 93 | 1041.3 |
| 20260905134612 | 73 | 255 | 0.0 | 3.0 | 0.00 | 0.25 | 0.00 | 93 | 1041.3 |
| 20260905134106 | 73 | 270 | 0.0 | 3.0 | 0.00 | 0.25 | 0.00 | 94 | 1041.3 |
| 20260905133601 | 73 | 234 | 0.0 | 0.0 | 0.00 | 0.25 | 0.00 | 95 | 1041.2 |
| 20260905133055 | 73 | 242 | 0.0 | 0.0 | 0.00 | 0.25 | 0.00 | 97 | 1041.2 |
| 20260905132549 | 72 | 242 | 0.0 | 0.0 | 0.00 | 0.25 | 0.00 | 97 | 1041.2 |
| 20260905132035 | 72 | 245 | 0.0 | 0.0 | 0.00 | 0.25 | 0.00 | 98 | 1041.3 |
| 20260905131538 | 71 | 230 | 0.0 | 0.0 | 0.00 | 0.25 | 0.00 | 99 | 1041.3 |
| 20260905131031 | 71 | 230 | 0.0 | 0.0 | 0.00 | 0.25 | 0.00 | 99 | 1041.3 |
| 20260905130608 | 70 | 230 | 0.0 | 0.0 | 0.00 | 0.25 | 0.00 | 99 | 1041.5 |
| 20260905125514 | 70 | 230 | 0.0 | 0.0 | 0.00 | 0.25 | 0.00 | 99 | 1041.5 |
| 20260905125006 | 70 | 227 | 0.0 | 0.0 | 0.00 | 0.25 | 0.00 | 99 | 1041.4 |
| 20260905124455 | 70 | 227 | 0.0 | 0.0 | 0.00 | 0.25 | 0.00 | 99 | 1041.4 |
| 20260905123955 | 70 | 227 | 0.0 | 0.0 | 0.00 | 0.25 | 0.00 | 99 | 1041.4 |
| 20260905123450 | 70 | 227 | 0.0 | 0.0 | 0.00 | 0.25 | 0.00 | 99 | 1041.3 |
| 20260905122943 | 70 | 225 | 0.0 | 0.0 | 0.00 | 0.25 | 0.00 | 99 | 1041.3 |
| 20260905122438 | 69 | 225 | 0.0 | 0.0 | 0.00 | 0.25 | 0.00 | 99 | 1041.3 |
| 20260905122423 | 69 | 225 | 0.0 | 0.0 | 0.00 | 0.25 | 0.00 | 99 | 1041.2 |
| 20260905121649 | 69 | 225 | 0.0 | 0.0 | 0.00 | 0.25 | 0.00 | 99 | 1041.2 |
| 20260905121131 | 68 | 225 | 0.0 | 0.0 | 0.00 | 0.25 | 0.00 | 99 | 1041.2 |
| 20260905120414 | 68 | 225 | 0.0 | 0.0 | 0.00 | 0.25 | 0.00 | 99 | 1041.2 |
| 20260905115906 | 68 | 225 | 0.0 | 0.0 | 0.00 | 0.25 | 0.00 | 99 | 1041.2 |
| 20260905115402 | 68 | 225 | 0.0 | 0.0 | 0.00 | 0.25 | 0.00 | 99 | 1041.2 |
| 20260905114855 | 67 | 225 | 0.0 | 0.0 | 0.00 | 0.25 | 0.00 | 99 | 1041.0 |
| 20260905114350 | 67 | 225 | 0.0 | 0.0 | 0.00 | 0.25 | 0.00 | 99 | 1041.0 |
| 20260905113843 | 67 | 225 | 0.0 | 0.0 | 0.00 | 0.25 | 0.00 | 99 | 1040.8 |
| 20260905113548 | 67 | 225 | 0.0 | 0.0 | 0.00 | 0.25 | 0.00 | 99 | 1040.8 |
| 20260905113055 | 66 | 225 | 0.0 | 0.0 | 0.00 | 0.25 | 0.00 | 99 | 1040.8 |
| 20260905112325 | 66 | 225 | 0.0 | 0.0 | 0.00 | 0.25 | 0.00 | 99 | 1040.8 |
| 20260905111818 | 65 | 225 | 0.0 | 0.0 | 0.00 | 0.25 | 0.00 | 99 | 1040.8 |
| 20260905111313 | 65 | 225 | 0.0 | 0.0 | 0.00 | 0.25 | 0.00 | 99 | 1040.8 |
| 20260905110759 | 65 | 225 | 0.0 | 0.0 | 0.00 | 0.25 | 0.00 | 99 | 1040.7 |
| 20260905110302 | 65 | 225 | 0.0 | 0.0 | 0.00 | 0.25 | 0.00 | 99 | 1040.7 |
| 20260905105755 | 65 | 225 | 0.0 | 0.0 | 0.00 | 0.25 | 0.00 | 99 | 1040.7 |
| 20260905105250 | 65 | 225 | 0.0 | 0.0 | 0.00 | 0.25 | 0.00 | 99 | 1040.7 |
| 20260905104743 | 65 | 225 | 0.0 | 0.0 | 0.00 | 0.25 | 0.00 | 99 | 1040.7 |
| 20260905104503 | 65 | 225 | 0.0 | 0.0 | 0.00 | 0.25 | 0.00 | 99 | 1040.7 |
| 20260905103951 | 65 | 225 | 0.0 | 0.0 | 0.00 | 0.25 | 0.00 | 98 | 1040.2 |
| 20260905103226 | 65 | 225 | 0.0 | 0.0 | 0.00 | 0.25 | 0.00 | 99 | 1040.2 |
| 20260905102943 | 65 | 225 | 0.0 | 0.0 | 0.00 | 0.25 | 0.00 | 98 | 1040.2 |
| 20260905102207 | 65 | 225 | 0.0 | 0.0 | 0.00 | 0.25 | 0.00 | 98 | 1040.2 |
| 20260905101706 | 65 | 225 | 0.0 | 0.0 | 0.00 | 0.25 | 0.00 | 98 | 1040.2 |
| 20260905101201 | 65 | 225 | 0.0 | 0.0 | 0.00 | 0.25 | 0.00 | 99 | 1040.2 |
| 20260905100654 | 65 | 225 | 0.0 | 0.0 | 0.00 | 0.25 | 0.00 | 98 | 1040.2 |
| 20260905100149 | 65 | 225 | 0.0 | 0.0 | 0.00 | 0.25 | 0.00 | 98 | 1040.2 |
| 20260905095642 | 65 | 225 | 0.0 | 0.0 | 0.00 | 0.25 | 0.00 | 98 | 1040.2 |
| 20260905095137 | 65 | 225 | 0.0 | 0.0 | 0.00 | 0.25 | 0.00 | 98 | 1040.3 |
| 20260905094623 | 65 | 225 | 0.0 | 0.0 | 0.00 | 0.25 | 0.00 | 98 | 1040.3 |
| 20260905094125 | 65 | 225 | 0.0 | 0.0 | 0.00 | 0.25 | 0.00 | 98 | 1040.3 |
| 20260905093618 | 65 | 225 | 0.0 | 0.0 | 0.00 | 0.25 | 0.00 | 98 | 1040.2 |
| 20260905093112 | 65 | 225 | 0.0 | 0.0 | 0.00 | 0.25 | 0.00 | 98 | 1040.2 |
| 20260905092606 | 65 | 225 | 0.0 | 0.0 | 0.00 | 0.25 | 0.00 | 98 | 1040.2 |
| 20260905092053 | 65 | 225 | 0.0 | 0.0 | 0.00 | 0.25 | 0.00 | 98 | 1040.2 |
| 20260905091817 | 65 | 225 | 0.0 | 0.0 | 0.00 | 0.25 | 0.00 | 98 | 1040.2 |
| 20260905091532 | 65 | 225 | 0.0 | 0.0 | 0.00 | 0.25 | 0.00 | 98 | 1040.2 |
| 20260905090543 | 65 | 225 | 0.0 | 0.0 | 0.00 | 0.25 | 0.00 | 98 | 1040.3 |
| 20260905090037 | 65 | 225 | 0.0 | 0.0 | 0.00 | 0.25 | 0.00 | 98 | 1040.3 |
| 20260905085530 | 65 | 225 | 0.0 | 0.0 | 0.00 | 0.25 | 0.00 | 97 | 1040.3 |
| 20260905085022 | 65 | 225 | 0.0 | 0.0 | 0.00 | 0.25 | 0.00 | 97 | 1040.2 |
| 20260905084737 | 65 | 225 | 0.0 | 0.0 | 0.00 | 0.25 | 0.00 | 97 | 1040.2 |
| 20260905084249 | 66 | 225 | 0.0 | 0.0 | 0.00 | 0.25 | 0.00 | 97 | 1040.2 |
| 20260905083516 | 66 | 225 | 0.0 | 0.0 | 0.00 | 0.25 | 0.00 | 97 | 1040.3 |
| 20260905083015 | 66 | 225 | 0.0 | 0.0 | 0.00 | 0.25 | 0.00 | 97 | 1040.3 |
| 20260905082516 | 66 | 225 | 0.0 | 0.0 | 0.00 | 0.25 | 0.00 | 97 | 1040.3 |
| 20260905082232 | 66 | 225 | 0.0 | 0.0 | 0.00 | 0.25 | 0.00 | 97 | 1040.3 |
| 20260905081514 | 67 | 225 | 0.0 | 0.0 | 0.00 | 0.25 | 0.00 | 97 | 1040.3 |
| 20260905081013 | 67 | 225 | 0.0 | 0.0 | 0.00 | 0.25 | 0.00 | 97 | 1040.3 |
| 20260905080514 | 67 | 225 | 0.0 | 0.0 | 0.00 | 0.25 | 0.00 | 97 | 1040.3 |
| 20260905080016 | 67 | 225 | 0.0 | 0.0 | 0.00 | 0.25 | 0.00 | 97 | 1040.3 |
| 20260905075516 | 67 | 225 | 0.0 | 0.0 | 0.00 | 0.25 | 0.00 | 96 | 1040.3 |
| 20260905075011 | 67 | 225 | 0.0 | 0.0 | 0.00 | 0.25 | 0.00 | 96 | 1040.3 |
| 20260905074458 | 67 | 225 | 0.0 | 0.0 | 0.00 | 0.26 | 0.00 | 96 | 1040.3 |
| 20260905073957 | 68 | 225 | 0.0 | 0.0 | 0.00 | 0.26 | 0.00 | 96 | 1040.3 |
| 20260905073458 | 68 | 225 | 0.0 | 0.0 | 0.00 | 0.26 | 0.00 | 96 | 1040.6 |
| 20260905072958 | 68 | 225 | 0.0 | 0.0 | 0.00 | 0.26 | 0.00 | 96 | 1040.6 |
| 20260905072457 | 68 | 225 | 0.0 | 0.0 | 0.00 | 0.26 | 0.00 | 96 | 1040.6 |
| 20260905071958 | 68 | 225 | 0.0 | 0.0 | 0.00 | 0.26 | 0.00 | 96 | 1040.7 |
| 20260905071726 | 68 | 225 | 0.0 | 0.0 | 0.00 | 0.26 | 0.00 | 96 | 1040.7 |
| 20260905071000 | 69 | 225 | 0.0 | 0.0 | 0.00 | 0.26 | 0.00 | 95 | 1040.7 |
| 20260905070500 | 69 | 225 | 0.0 | 0.0 | 0.00 | 0.26 | 0.00 | 95 | 1040.8 |
| 20260905065954 | 69 | 225 | 0.0 | 0.0 | 0.00 | 0.26 | 0.00 | 95 | 1040.8 |
| 20260905065442 | 69 | 232 | 0.0 | 0.0 | 0.00 | 0.26 | 0.00 | 95 | 1040.8 |
| 20260905064931 | 69 | 231 | 0.0 | 0.0 | 0.00 | 0.26 | 0.00 | 95 | 1040.8 |
| 20260905064642 | 69 | 232 | 0.0 | 0.0 | 0.00 | 0.26 | 0.00 | 95 | 1040.8 |
| 20260905063906 | 69 | 232 | 0.0 | 0.0 | 0.00 | 0.26 | 0.00 | 94 | 1040.8 |
| 20260905063354 | 69 | 231 | 0.0 | 0.0 | 0.00 | 0.26 | 0.00 | 94 | 1041.0 |
| 20260905062844 | 70 | 231 | 0.0 | 0.0 | 0.00 | 0.26 | 0.00 | 94 | 1041.0 |
| 20260905062336 | 70 | 231 | 0.0 | 0.0 | 0.00 | 0.26 | 0.00 | 93 | 1041.3 |
| 20260905061830 | 70 | 231 | 0.0 | 0.0 | 0.00 | 0.26 | 0.00 | 93 | 1041.3 |
| 20260905061322 | 70 | 231 | 0.0 | 1.0 | 0.00 | 0.26 | 0.00 | 93 | 1041.3 |
| 20260905060817 | 71 | 231 | 0.0 | 2.0 | 0.00 | 0.26 | 0.00 | 93 | 1041.3 |
| 20260905060312 | 71 | 249 | 1.0 | 4.0 | 0.00 | 0.26 | 0.00 | 93 | 1041.3 |
| 20260905055801 | 71 | 230 | 1.0 | 4.0 | 0.00 | 0.26 | 0.00 | 93 | 1041.3 |
| 20260905055259 | 71 | 252 | 0.0 | 3.0 | 0.00 | 0.26 | 0.00 | 93 | 1041.5 |
| 20260905054754 | 71 | 241 | 0.0 | 2.0 | 0.00 | 0.26 | 0.00 | 93 | 1041.5 |
| 20260905054248 | 71 | 193 | 0.0 | 2.0 | 0.00 | 0.26 | 0.00 | 93 | 1041.5 |
| 20260905053741 | 71 | 218 | 0.0 | 3.0 | 0.00 | 0.26 | 0.00 | 94 | 1041.8 |
| 20260905053237 | 70 | 258 | 0.0 | 3.0 | 0.00 | 0.26 | 0.00 | 94 | 1041.8 |
| 20260905052730 | 70 | 207 | 0.0 | 1.0 | 0.00 | 0.26 | 0.00 | 94 | 1041.8 |
| 20260905052216 | 70 | 265 | 0.0 | 1.0 | 0.00 | 0.26 | 0.00 | 94 | 1042.2 |
| 20260905051718 | 70 | 240 | 0.0 | 3.0 | 0.00 | 0.26 | 0.00 | 95 | 1042.2 |
| 20260905051211 | 70 | 247 | 0.0 | 3.0 | 0.00 | 0.26 | 0.00 | 95 | 1042.2 |
| 20260905050706 | 70 | 277 | 0.0 | 2.0 | 0.00 | 0.26 | 0.00 | 95 | 1042.3 |
| 20260905050422 | 70 | 275 | 0.0 | 2.0 | 0.00 | 0.26 | 0.00 | 96 | 1042.3 |
| 20260905045646 | 70 | 238 | 0.0 | 2.0 | 0.00 | 0.26 | 0.00 | 96 | 1042.3 |
| 20260905045148 | 70 | 302 | 0.0 | 2.0 | 0.00 | 0.26 | 0.00 | 96 | 1042.2 |
| 20260905044634 | 70 | 304 | 0.0 | 2.0 | 0.00 | 0.26 | 0.00 | 96 | 1042.2 |
| 20260905044136 | 70 | 350 | 0.0 | 1.0 | 0.00 | 0.26 | 0.00 | 96 | 1042.2 |
| 20260905043852 | 70 | 257 | 0.0 | 1.0 | 0.00 | 0.26 | 0.00 | 97 | 1042.2 |
| 20260905043123 | 70 | 35 | 0.0 | 1.0 | 0.00 | 0.26 | 0.00 | 97 | 1042.2 |
| 20260905042617 | 70 | 38 | 0.0 | 1.0 | 0.00 | 0.26 | 0.00 | 97 | 1042.2 |
| 20260905042326 | 70 | 15 | 0.0 | 0.0 | 0.00 | 0.26 | 0.00 | 97 | 1042.1 |
| 20260905041606 | 70 | 292 | 0.0 | 1.0 | 0.00 | 0.27 | 0.00 | 97 | 1042.1 |
| 20260905041100 | 70 | 292 | 0.0 | 1.0 | 0.00 | 0.27 | 0.00 | 97 | 1042.1 |
| 20260905040817 | 70 | 299 | 0.0 | 1.0 | 0.00 | 0.29 | 0.00 | 97 | 1042.3 |
| 20260905040048 | 70 | 295 | 0.0 | 1.0 | 0.00 | 0.29 | 0.00 | 97 | 1042.3 |
| 20260905035542 | 70 | 295 | 0.0 | 1.0 | 0.00 | 0.30 | 0.29 | 97 | 1042.3 |
| 20260905035035 | 70 | 266 | 0.0 | 1.0 | 0.00 | 0.31 | 0.29 | 97 | 1042.3 |
| 20260905034529 | 70 | 266 | 0.0 | 1.0 | 0.00 | 0.31 | 0.29 | 98 | 1042.3 |
| 20260905034024 | 70 | 266 | 0.0 | 1.0 | 0.00 | 0.32 | 0.29 | 98 | 1042.3 |
| 20260905033734 | 70 | 266 | 0.0 | 0.0 | 0.00 | 0.32 | 0.29 | 98 | 1042.4 |
| 20260905033233 | 70 | 266 | 0.0 | 1.0 | 0.00 | 0.32 | 0.29 | 98 | 1042.4 |
| 20260905032506 | 70 | 266 | 0.0 | 1.0 | 0.00 | 0.32 | 0.29 | 98 | 1042.4 |
| 20260905031959 | 70 | 260 | 0.0 | 1.0 | 0.00 | 0.33 | 0.29 | 98 | 1042.3 |
| 20260905031715 | 70 | 260 | 0.0 | 1.0 | 0.00 | 0.33 | 0.29 | 99 | 1042.3 |
| 20260905030943 | 70 | 260 | 0.0 | 1.0 | 0.00 | 0.36 | 0.29 | 99 | 1042.3 |
| 20260905030442 | 70 | 260 | 0.0 | 1.0 | 0.00 | 0.37 | 0.29 | 99 | 1042.3 |
| 20260905025929 | 70 | 232 | 0.0 | 1.0 | 0.00 | 0.37 | 0.29 | 99 | 1042.3 |
| 20260905025430 | 70 | 227 | 0.0 | 0.0 | 0.00 | 0.37 | 0.29 | 99 | 1042.3 |
| 20260905024924 | 70 | 227 | 0.0 | 0.0 | 0.00 | 0.38 | 0.29 | 98 | 1042.2 |
| 20260905024418 | 69 | 227 | 0.0 | 0.0 | 0.00 | 0.40 | 0.29 | 98 | 1042.2 |
| 20260905023912 | 69 | 227 | 0.0 | 0.0 | 0.00 | 0.41 | 0.29 | 98 | 1042.2 |
| 20260905023358 | 70 | 227 | 0.0 | 0.0 | 0.00 | 0.46 | 0.29 | 98 | 1042.2 |
| 20260905022900 | 70 | 227 | 0.0 | 0.0 | 0.00 | 0.51 | 0.29 | 98 | 1042.2 |
| 20260905022354 | 70 | 227 | 0.0 | 0.0 | 0.00 | 0.63 | 0.29 | 98 | 1041.9 |
| 20260905021848 | 70 | 227 | 0.0 | 0.0 | 0.00 | 0.65 | 0.29 | 98 | 1041.9 |
| 20260905021342 | 70 | 227 | 0.0 | 0.0 | 0.00 | 0.65 | 0.29 | 98 | 1041.9 |
| 20260905020848 | 70 | 227 | 0.0 | 0.0 | 0.00 | 0.65 | 0.29 | 98 | 1041.7 |
| 20260905020329 | 70 | 227 | 0.0 | 0.0 | 0.00 | 0.65 | 0.29 | 98 | 1041.7 |
| 20260905015817 | 70 | 227 | 0.0 | 0.0 | 0.00 | 0.65 | 0.29 | 98 | 1041.7 |
| 20260905015318 | 70 | 227 | 0.0 | 0.0 | 0.00 | 0.65 | 0.29 | 98 | 1041.4 |
| 20260905014805 | 70 | 227 | 0.0 | 0.0 | 0.00 | 0.65 | 0.29 | 97 | 1041.4 |
| 20260905014306 | 70 | 227 | 0.0 | 0.0 | 0.00 | 0.65 | 0.29 | 97 | 1041.4 |
| 20260905013759 | 70 | 227 | 0.0 | 0.0 | 0.00 | 0.65 | 0.29 | 98 | 1041.2 |
| 20260905013253 | 70 | 227 | 0.0 | 0.0 | 0.00 | 0.65 | 0.29 | 97 | 1041.2 |
| 20260905012747 | 70 | 227 | 0.0 | 0.0 | 0.00 | 0.65 | 0.29 | 97 | 1041.2 |
| 20260905012236 | 71 | 227 | 0.0 | 0.0 | 0.00 | 0.65 | 0.29 | 97 | 1041.3 |
| 20260905011736 | 71 | 227 | 0.0 | 0.0 | 0.00 | 0.65 | 0.29 | 97 | 1041.3 |
| 20260905011223 | 71 | 227 | 0.0 | 0.0 | 0.00 | 0.65 | 0.29 | 97 | 1041.3 |
| 20260905010724 | 71 | 227 | 0.0 | 0.0 | 0.00 | 0.65 | 0.29 | 97 | 1041.2 |
| 20260905010218 | 71 | 227 | 0.0 | 0.0 | 0.00 | 0.65 | 0.29 | 97 | 1041.2 |
| 20260905005931 | 71 | 227 | 0.0 | 0.0 | 0.00 | 0.65 | 0.29 | 97 | 1041.2 |
| 20260905005204 | 71 | 227 | 0.0 | 0.0 | 0.00 | 0.65 | 0.29 | 97 | 1041.3 |
| 20260905004657 | 71 | 227 | 0.0 | 0.0 | 0.00 | 0.65 | 0.29 | 96 | 1041.3 |
| 20260905004152 | 72 | 227 | 0.0 | 0.0 | 0.00 | 0.65 | 0.29 | 96 | 1041.3 |
| 20260905003645 | 72 | 227 | 0.0 | 0.0 | 0.00 | 0.65 | 0.29 | 96 | 1041.3 |
| 20260905003140 | 72 | 227 | 0.0 | 0.0 | 0.00 | 0.65 | 0.29 | 96 | 1041.3 |
| 20260905002636 | 72 | 227 | 0.0 | 0.0 | 0.00 | 0.65 | 0.29 | 96 | 1041.3 |
| 20260905002137 | 72 | 227 | 0.0 | 0.0 | 0.00 | 0.65 | 0.29 | 96 | 1040.9 |
| 20260905001637 | 73 | 227 | 0.0 | 0.0 | 0.00 | 0.65 | 0.29 | 96 | 1040.9 |
| 20260905001137 | 73 | 227 | 0.0 | 0.0 | 0.00 | 0.65 | 0.29 | 96 | 1040.9 |
| 20260905000636 | 73 | 227 | 0.0 | 0.0 | 0.00 | 0.65 | 0.29 | 95 | 1041.1 |
| 20260905000134 | 73 | 227 | 0.0 | 0.0 | 0.00 | 0.65 | 0.29 | 95 | 1041.1 |
| 20260904235634 | 73 | 227 | 0.0 | 0.0 | 0.00 | 0.65 | 0.29 | 95 | 1041.1 |
| 20260904235135 | 73 | 227 | 0.0 | 0.0 | 0.00 | 0.65 | 0.29 | 95 | 1041.2 |
| 20260904234635 | 74 | 227 | 0.0 | 0.0 | 0.00 | 0.65 | 0.29 | 95 | 1041.2 |
| 20260904234133 | 74 | 227 | 0.0 | 0.0 | 0.00 | 0.65 | 0.29 | 94 | 1041.2 |
| 20260904233630 | 74 | 227 | 0.0 | 1.0 | 0.00 | 0.65 | 0.29 | 94 | 1041.3 |
| 20260904233129 | 74 | 227 | 0.0 | 1.0 | 0.00 | 0.65 | 0.29 | 94 | 1041.3 |
| 20260904232629 | 74 | 223 | 0.0 | 0.0 | 0.00 | 0.65 | 0.29 | 94 | 1041.3 |
| 20260904232348 | 74 | 223 | 0.0 | 0.0 | 0.00 | 0.65 | 0.29 | 94 | 1041.3 |
| 20260904231623 | 75 | 223 | 0.0 | 0.0 | 0.00 | 0.65 | 0.29 | 93 | 1041.3 |
| 20260904231112 | 75 | 223 | 0.0 | 0.0 | 0.00 | 0.65 | 0.29 | 93 | 1041.3 |
| 20260904230830 | 75 | 230 | 0.0 | 0.0 | 0.00 | 0.65 | 0.29 | 93 | 1041.2 |
| 20260904230113 | 75 | 230 | 0.0 | 1.0 | 0.00 | 0.65 | 0.29 | 93 | 1041.2 |
| 20260904225612 | 76 | 230 | 0.0 | 2.0 | 0.00 | 0.65 | 0.29 | 92 | 1041.2 |
| 20260904225112 | 76 | 230 | 0.0 | 2.0 | 0.00 | 0.65 | 0.29 | 93 | 1041.6 |
| 20260904224613 | 76 | 246 | 1.0 | 3.0 | 0.00 | 0.65 | 0.29 | 93 | 1041.6 |
| 20260904224113 | 76 | 238 | 0.0 | 3.0 | 0.00 | 0.65 | 0.29 | 92 | 1041.6 |
| 20260904223612 | 76 | 254 | 0.0 | 1.0 | 0.00 | 0.65 | 0.29 | 92 | 1041.8 |
| 20260904223335 | 76 | 272 | 0.0 | 2.0 | 0.00 | 0.65 | 0.29 | 92 | 1041.8 |
| 20260904222612 | 76 | 243 | 0.0 | 3.0 | 0.00 | 0.65 | 0.29 | 92 | 1041.8 |
| 20260904222112 | 76 | 265 | 1.0 | 5.0 | 0.00 | 0.65 | 0.29 | 92 | 1041.8 |
| 20260904221612 | 76 | 234 | 1.0 | 5.0 | 0.00 | 0.65 | 0.29 | 92 | 1041.8 |
| 20260904221113 | 76 | 264 | 1.0 | 4.0 | 0.00 | 0.65 | 0.29 | 93 | 1041.8 |
| 20260904220612 | 76 | 265 | 1.0 | 4.0 | 0.00 | 0.65 | 0.29 | 93 | 1041.6 |
| 20260904220113 | 76 | 269 | 1.0 | 4.0 | 0.00 | 0.65 | 0.29 | 93 | 1041.6 |
| 20260904215613 | 76 | 259 | 0.0 | 3.0 | 0.00 | 0.65 | 0.29 | 94 | 1041.6 |
| 20260904215113 | 76 | 253 | 0.0 | 2.0 | 0.00 | 0.65 | 0.29 | 94 | 1041.6 |
| 20260904214612 | 76 | 276 | 0.0 | 1.0 | 0.00 | 0.65 | 0.29 | 94 | 1041.6 |
| 20260904214110 | 76 | 225 | 0.0 | 0.0 | 0.00 | 0.65 | 0.29 | 94 | 1041.6 |
| 20260904214044 | 76 | 136 | 0.0 | 1.0 | 0.00 | 0.65 | 0.29 | 93 | 1042.1 |
| 20260904213323 | 76 | 241 | 0.0 | 1.0 | 0.00 | 0.65 | 0.29 | 93 | 1042.1 |
| 20260904212553 | 75 | 252 | 0.0 | 2.0 | 0.00 | 0.65 | 0.29 | 93 | 1042.1 |
| 20260904212046 | 75 | 275 | 1.0 | 5.0 | 0.00 | 0.65 | 0.29 | 93 | 1042.1 |
| 20260904211540 | 75 | 234 | 1.0 | 5.0 | 0.00 | 0.65 | 0.29 | 93 | 1042.1 |
| 20260904211034 | 75 | 281 | 1.0 | 4.0 | 0.00 | 0.65 | 0.29 | 93 | 1042.1 |
| 20260904210745 | 75 | 288 | 1.0 | 4.0 | 0.00 | 0.65 | 0.29 | 93 | 1042.3 |
| 20260904210018 | 75 | 157 | 1.0 | 3.0 | 0.00 | 0.65 | 0.29 | 93 | 1042.3 |
| 20260904205516 | 75 | 221 | 1.0 | 3.0 | 0.00 | 0.65 | 0.29 | 93 | 1042.3 |
| 20260904205235 | 75 | 260 | 0.0 | 5.0 | 0.00 | 0.65 | 0.29 | 93 | 1042.3 |
| 20260904204504 | 74 | 243 | 1.0 | 3.0 | 0.00 | 0.65 | 0.29 | 94 | 1042.3 |
| 20260904203958 | 74 | 250 | 1.0 | 3.0 | 0.00 | 0.65 | 0.29 | 93 | 1042.3 |
| 20260904203455 | 74 | 245 | 1.0 | 3.0 | 0.00 | 0.65 | 0.29 | 93 | 1042.4 |
| 20260904202956 | 74 | 260 | 0.0 | 2.0 | 0.00 | 0.65 | 0.29 | 94 | 1042.4 |
| 20260904202454 | 74 | 232 | 0.0 | 2.0 | 0.01 | 0.65 | 0.29 | 94 | 1042.4 |
| 20260904201951 | 74 | 272 | 0.0 | 3.0 | 0.01 | 0.65 | 0.29 | 94 | 1042.2 |
| 20260904201452 | 74 | 219 | 1.0 | 4.0 | 0.01 | 0.65 | 0.29 | 94 | 1042.2 |
| 20260904200951 | 74 | 240 | 1.0 | 4.0 | 0.06 | 0.65 | 0.29 | 94 | 1042.2 |
| 20260904200449 | 74 | 261 | 1.0 | 4.0 | 0.21 | 0.65 | 0.29 | 95 | 1041.7 |
| 20260904195950 | 74 | 232 | 1.0 | 4.0 | 0.25 | 0.65 | 0.29 | 94 | 1041.7 |
| 20260904195450 | 74 | 248 | 0.0 | 3.0 | 0.25 | 0.65 | 0.29 | 94 | 1041.7 |